sensor_id;sensor_type;location;lat;lon;timestamp;pressure;altitude;pressure_sealevel;temperature;humidity
60974;BME280;46846;51.528;5.076;2023-11-19T00:00:38;100373.25;;;8.11;92.92
60974;BME280;46846;51.528;5.076;2023-11-19T00:03:04;100365.31;;;8.11;92.90
60974;BME280;46846;51.528;5.076;2023-11-19T00:05:30;100361.84;;;8.09;92.96
60974;BME280;46846;51.528;5.076;2023-11-19T00:07:56;100352.13;;;8.07;93.12
60974;BME280;46846;51.528;5.076;2023-11-19T00:10:21;100336.38;;;8.03;93.20
60974;BME280;46846;51.528;5.076;2023-11-19T00:12:47;100334.50;;;8.06;93.35
60974;BME280;46846;51.528;5.076;2023-11-19T00:15:16;100320.41;;;8.06;93.41
60974;BME280;46846;51.528;5.076;2023-11-19T00:17:44;100316.84;;;8.07;93.29
60974;BME280;46846;51.528;5.076;2023-11-19T00:20:12;100315.03;;;8.07;93.61
60974;BME280;46846;51.528;5.076;2023-11-19T00:22:38;100313.25;;;8.08;93.32
60974;BME280;46846;51.528;5.076;2023-11-19T00:25:04;100313.88;;;8.16;93.36
60974;BME280;46846;51.528;5.076;2023-11-19T00:27:30;100307.84;;;8.11;93.23
60974;BME280;46846;51.528;5.076;2023-11-19T00:29:56;100304.25;;;8.14;93.39
60974;BME280;46846;51.528;5.076;2023-11-19T00:32:21;100313.13;;;8.13;93.60
60974;BME280;46846;51.528;5.076;2023-11-19T00:34:47;100312.09;;;8.17;93.39
60974;BME280;46846;51.528;5.076;2023-11-19T00:37:13;100314.59;;;8.21;93.47
60974;BME280;46846;51.528;5.076;2023-11-19T00:39:38;100315.38;;;8.25;93.36
60974;BME280;46846;51.528;5.076;2023-11-19T00:42:03;100321.59;;;8.24;93.12
60974;BME280;46846;51.528;5.076;2023-11-19T00:44:28;100326.78;;;8.27;93.20
60974;BME280;46846;51.528;5.076;2023-11-19T00:46:54;100326.81;;;8.26;93.25
60974;BME280;46846;51.528;5.076;2023-11-19T00:49:19;100328.69;;;8.22;93.31
60974;BME280;46846;51.528;5.076;2023-11-19T00:51:45;100326.66;;;8.30;92.91
60974;BME280;46846;51.528;5.076;2023-11-19T00:54:10;100323.97;;;8.32;93.08
60974;BME280;46846;51.528;5.076;2023-11-19T00:56:35;100326.53;;;8.35;92.92
60974;BME280;46846;51.528;5.076;2023-11-19T00:59:02;100321.34;;;8.30;93.06
60974;BME280;46846;51.528;5.076;2023-11-19T01:01:27;100324.88;;;8.31;93.26
60974;BME280;46846;51.528;5.076;2023-11-19T01:03:52;100331.88;;;8.33;93.19
60974;BME280;46846;51.528;5.076;2023-11-19T01:06:27;100330.19;;;8.31;93.22
60974;BME280;46846;51.528;5.076;2023-11-19T01:08:53;100325.50;;;8.39;93.23
60974;BME280;46846;51.528;5.076;2023-11-19T01:11:22;100321.06;;;8.40;92.85
60974;BME280;46846;51.528;5.076;2023-11-19T01:13:48;100314.72;;;8.44;93.11
60974;BME280;46846;51.528;5.076;2023-11-19T01:16:13;100293.59;;;8.42;93.14
60974;BME280;46846;51.528;5.076;2023-11-19T01:18:39;100288.94;;;8.49;93.09
60974;BME280;46846;51.528;5.076;2023-11-19T01:21:04;100271.22;;;8.51;92.83
60974;BME280;46846;51.528;5.076;2023-11-19T01:23:30;100280.91;;;8.52;92.76
60974;BME280;46846;51.528;5.076;2023-11-19T01:25:55;100276.69;;;8.45;92.79
60974;BME280;46846;51.528;5.076;2023-11-19T01:28:20;100274.66;;;8.53;92.89
60974;BME280;46846;51.528;5.076;2023-11-19T01:30:45;100286.41;;;8.46;92.69
60974;BME280;46846;51.528;5.076;2023-11-19T01:33:11;100293.44;;;8.47;92.81
60974;BME280;46846;51.528;5.076;2023-11-19T01:35:36;100313.75;;;8.46;92.92
60974;BME280;46846;51.528;5.076;2023-11-19T01:38:01;100304.66;;;8.55;92.78
60974;BME280;46846;51.528;5.076;2023-11-19T01:40:26;100313.44;;;8.57;92.65
60974;BME280;46846;51.528;5.076;2023-11-19T01:42:52;100316.09;;;8.57;92.75
60974;BME280;46846;51.528;5.076;2023-11-19T01:45:35;100305.72;;;8.75;93.25
60974;BME280;46846;51.528;5.076;2023-11-19T01:48:02;100308.69;;;8.67;92.47
60974;BME280;46846;51.528;5.076;2023-11-19T01:50:30;100308.63;;;8.69;92.41
60974;BME280;46846;51.528;5.076;2023-11-19T01:52:57;100298.13;;;8.66;92.28
60974;BME280;46846;51.528;5.076;2023-11-19T01:55:22;100308.69;;;8.67;92.31
60974;BME280;46846;51.528;5.076;2023-11-19T01:57:48;100301.81;;;8.61;92.23
60974;BME280;46846;51.528;5.076;2023-11-19T02:00:14;100303.59;;;8.61;92.31
60974;BME280;46846;51.528;5.076;2023-11-19T02:02:41;100293.69;;;8.66;92.29
60974;BME280;46846;51.528;5.076;2023-11-19T02:05:06;100303.38;;;8.67;92.12
60974;BME280;46846;51.528;5.076;2023-11-19T02:07:32;100310.94;;;8.53;92.64
60974;BME280;46846;51.528;5.076;2023-11-19T02:09:57;100295.03;;;8.53;92.82
60974;BME280;46846;51.528;5.076;2023-11-19T02:12:25;100299.41;;;8.54;92.94
60974;BME280;46846;51.528;5.076;2023-11-19T02:14:50;100280.53;;;8.63;92.73
60974;BME280;46846;51.528;5.076;2023-11-19T02:17:28;100300.88;;;8.63;92.70
60974;BME280;46846;51.528;5.076;2023-11-19T02:19:56;100301.06;;;8.58;92.64
60974;BME280;46846;51.528;5.076;2023-11-19T02:22:21;100296.59;;;8.58;92.90
60974;BME280;46846;51.528;5.076;2023-11-19T02:24:47;100291.41;;;8.55;92.90
60974;BME280;46846;51.528;5.076;2023-11-19T02:27:16;100290.56;;;8.53;92.97
60974;BME280;46846;51.528;5.076;2023-11-19T02:29:44;100292.50;;;8.48;93.31
60974;BME280;46846;51.528;5.076;2023-11-19T02:32:10;100297.53;;;8.57;93.17
60974;BME280;46846;51.528;5.076;2023-11-19T02:34:35;100300.16;;;8.57;92.98
60974;BME280;46846;51.528;5.076;2023-11-19T02:37:00;100290.50;;;8.56;93.04
60974;BME280;46846;51.528;5.076;2023-11-19T02:39:25;100288.63;;;8.58;93.08
60974;BME280;46846;51.528;5.076;2023-11-19T02:41:51;100287.84;;;8.56;92.96
60974;BME280;46846;51.528;5.076;2023-11-19T02:44:18;100285.22;;;8.55;93.00
60974;BME280;46846;51.528;5.076;2023-11-19T02:46:43;100283.53;;;8.52;93.43
60974;BME280;46846;51.528;5.076;2023-11-19T02:49:08;100288.75;;;8.55;93.04
60974;BME280;46846;51.528;5.076;2023-11-19T02:51:33;100289.56;;;8.57;92.93
60974;BME280;46846;51.528;5.076;2023-11-19T02:54:00;100291.25;;;8.60;92.94
60974;BME280;46846;51.528;5.076;2023-11-19T02:56:25;100284.97;;;8.63;92.78
60974;BME280;46846;51.528;5.076;2023-11-19T02:58:50;100284.31;;;8.56;92.87
60974;BME280;46846;51.528;5.076;2023-11-19T03:01:25;100288.75;;;8.55;93.07
60974;BME280;46846;51.528;5.076;2023-11-19T03:03:59;100293.94;;;8.58;92.88
60974;BME280;46846;51.528;5.076;2023-11-19T03:06:26;100281.59;;;8.57;92.84
60974;BME280;46846;51.528;5.076;2023-11-19T03:08:52;100295.88;;;8.53;93.00
60974;BME280;46846;51.528;5.076;2023-11-19T03:11:17;100297.53;;;8.57;93.00
60974;BME280;46846;51.528;5.076;2023-11-19T03:13:43;100298.41;;;8.58;92.75
60974;BME280;46846;51.528;5.076;2023-11-19T03:16:08;100298.44;;;8.56;92.78
60974;BME280;46846;51.528;5.076;2023-11-19T03:18:33;100289.78;;;8.51;92.98
60974;BME280;46846;51.528;5.076;2023-11-19T03:20:58;100297.53;;;8.57;92.89
60974;BME280;46846;51.528;5.076;2023-11-19T03:23:24;100307.38;;;8.54;92.86
60974;BME280;46846;51.528;5.076;2023-11-19T03:25:50;100303.69;;;8.58;92.72
60974;BME280;46846;51.528;5.076;2023-11-19T03:28:15;100303.75;;;8.56;92.73
60974;BME280;46846;51.528;5.076;2023-11-19T03:30:40;100291.41;;;8.55;92.76
60974;BME280;46846;51.528;5.076;2023-11-19T03:33:06;100291.34;;;8.57;92.51
60974;BME280;46846;51.528;5.076;2023-11-19T03:35:31;100284.38;;;8.54;92.75
60974;BME280;46846;51.528;5.076;2023-11-19T03:37:58;100286.09;;;8.55;92.50
60974;BME280;46846;51.528;5.076;2023-11-19T03:40:23;100288.06;;;8.48;92.74
60974;BME280;46846;51.528;5.076;2023-11-19T03:42:50;100283.63;;;8.49;92.78
60974;BME280;46846;51.528;5.076;2023-11-19T03:45:15;100287.28;;;8.45;92.88
60974;BME280;46846;51.528;5.076;2023-11-19T03:47:40;100280.09;;;8.48;92.79
60974;BME280;46846;51.528;5.076;2023-11-19T03:50:06;100286.44;;;8.44;92.93
60974;BME280;46846;51.528;5.076;2023-11-19T03:52:33;100281.16;;;8.44;92.68
60974;BME280;46846;51.528;5.076;2023-11-19T03:54:58;100282.09;;;8.42;92.90
60974;BME280;46846;51.528;5.076;2023-11-19T03:57:23;100282.06;;;8.43;93.02
60974;BME280;46846;51.528;5.076;2023-11-19T03:59:49;100281.19;;;8.43;92.81
60974;BME280;46846;51.528;5.076;2023-11-19T04:02:14;100286.66;;;8.38;92.89
60974;BME280;46846;51.528;5.076;2023-11-19T04:04:40;100295.56;;;8.35;93.10
60974;BME280;46846;51.528;5.076;2023-11-19T04:07:05;100298.78;;;8.45;92.74
60974;BME280;46846;51.528;5.076;2023-11-19T04:09:31;100289.09;;;8.44;92.90
60974;BME280;46846;51.528;5.076;2023-11-19T04:11:59;100303.31;;;8.42;92.71
60974;BME280;46846;51.528;5.076;2023-11-19T04:14:25;100298.78;;;8.45;92.38
60974;BME280;46846;51.528;5.076;2023-11-19T04:16:51;100305.97;;;8.42;92.45
60974;BME280;46846;51.528;5.076;2023-11-19T04:19:16;100308.03;;;8.33;92.65
60974;BME280;46846;51.528;5.076;2023-11-19T04:21:41;100310.69;;;8.33;92.72
60974;BME280;46846;51.528;5.076;2023-11-19T04:24:07;100311.22;;;8.43;92.38
60974;BME280;46846;51.528;5.076;2023-11-19T04:26:33;100312.19;;;8.41;92.14
60974;BME280;46846;51.528;5.076;2023-11-19T04:28:59;100316.75;;;8.37;92.24
60974;BME280;46846;51.528;5.076;2023-11-19T04:31:28;100307.97;;;8.35;92.48
60974;BME280;46846;51.528;5.076;2023-11-19T04:33:53;100299.19;;;8.33;92.56
60974;BME280;46846;51.528;5.076;2023-11-19T04:36:19;100301.78;;;8.34;92.49
60974;BME280;46846;51.528;5.076;2023-11-19T04:38:45;100303.47;;;8.37;92.34
60974;BME280;46846;51.528;5.076;2023-11-19T04:41:11;100317.69;;;8.34;92.40
60974;BME280;46846;51.528;5.076;2023-11-19T04:43:36;100312.56;;;8.30;92.50
60974;BME280;46846;51.528;5.076;2023-11-19T04:46:03;100314.16;;;8.34;92.25
60974;BME280;46846;51.528;5.076;2023-11-19T04:48:28;100310.91;;;8.26;92.36
60974;BME280;46846;51.528;5.076;2023-11-19T04:50:53;100315.28;;;8.27;92.48
60974;BME280;46846;51.528;5.076;2023-11-19T04:53:19;100310.75;;;8.30;92.48
60974;BME280;46846;51.528;5.076;2023-11-19T04:55:44;100323.94;;;8.33;92.33
60974;BME280;46846;51.528;5.076;2023-11-19T04:58:10;100319.53;;;8.32;92.10
60974;BME280;46846;51.528;5.076;2023-11-19T05:00:35;100321.34;;;8.30;92.28
60974;BME280;46846;51.528;5.076;2023-11-19T05:03:00;100323.13;;;8.31;91.98
60974;BME280;46846;51.528;5.076;2023-11-19T05:05:25;100320.41;;;8.33;92.11
60974;BME280;46846;51.528;5.076;2023-11-19T05:07:51;100327.34;;;8.37;91.80
60974;BME280;46846;51.528;5.076;2023-11-19T05:10:16;100322.25;;;8.31;91.98
60974;BME280;46846;51.528;5.076;2023-11-19T05:12:41;100326.53;;;8.35;91.97
60974;BME280;46846;51.528;5.076;2023-11-19T05:15:07;100321.16;;;8.37;91.88
60974;BME280;46846;51.528;5.076;2023-11-19T05:17:32;100322.13;;;8.34;91.70
60974;BME280;46846;51.528;5.076;2023-11-19T05:19:57;100321.34;;;8.30;91.82
60974;BME280;46846;51.528;5.076;2023-11-19T05:22:23;100314.50;;;8.25;92.13
60974;BME280;46846;51.528;5.076;2023-11-19T05:24:48;100326.00;;;8.24;92.04
60974;BME280;46846;51.528;5.076;2023-11-19T05:27:14;100318.94;;;8.24;91.77
60974;BME280;46846;51.528;5.076;2023-11-19T05:29:39;100319.63;;;8.29;91.83
60974;BME280;46846;51.528;5.076;2023-11-19T05:32:06;100324.13;;;8.27;91.91
60974;BME280;46846;51.528;5.076;2023-11-19T05:34:32;100323.31;;;8.25;91.59
60974;BME280;46846;51.528;5.076;2023-11-19T05:36:57;100330.44;;;8.23;91.57
60974;BME280;46846;51.528;5.076;2023-11-19T05:39:23;100334.94;;;8.21;91.81
60974;BME280;46846;51.528;5.076;2023-11-19T05:41:49;100339.31;;;8.22;91.74
60974;BME280;46846;51.528;5.076;2023-11-19T05:44:14;100326.97;;;8.21;91.90
60974;BME280;46846;51.528;5.076;2023-11-19T05:46:39;100326.13;;;8.20;91.84
60974;BME280;46846;51.528;5.076;2023-11-19T05:49:07;100326.94;;;8.23;91.66
60974;BME280;46846;51.528;5.076;2023-11-19T05:51:35;100328.66;;;8.24;91.47
60974;BME280;46846;51.528;5.076;2023-11-19T05:54:01;100343.06;;;8.15;91.81
60974;BME280;46846;51.528;5.076;2023-11-19T05:56:26;100341.97;;;8.22;91.72
60974;BME280;46846;51.528;5.076;2023-11-19T05:58:57;100350.81;;;8.21;91.31
60974;BME280;46846;51.528;5.076;2023-11-19T06:01:22;100349.00;;;8.23;91.55
60974;BME280;46846;51.528;5.076;2023-11-19T06:03:48;100351.56;;;8.26;91.42
60974;BME280;46846;51.528;5.076;2023-11-19T06:06:15;100339.38;;;8.20;91.53
60974;BME280;46846;51.528;5.076;2023-11-19T06:08:40;100323.59;;;8.16;91.61
60974;BME280;46846;51.528;5.076;2023-11-19T06:11:05;100337.72;;;8.16;91.75
60974;BME280;46846;51.528;5.076;2023-11-19T06:13:31;100332.38;;;8.18;91.62
60974;BME280;46846;51.528;5.076;2023-11-19T06:15:56;100334.13;;;8.19;91.29
60974;BME280;46846;51.528;5.076;2023-11-19T06:18:21;100328.69;;;8.22;91.20
60974;BME280;46846;51.528;5.076;2023-11-19T06:20:48;100318.97;;;8.23;91.35
60974;BME280;46846;51.528;5.076;2023-11-19T06:23:14;100324.28;;;8.23;91.11
60974;BME280;46846;51.528;5.076;2023-11-19T06:25:40;100322.72;;;8.17;91.43
60974;BME280;46846;51.528;5.076;2023-11-19T06:28:05;100325.44;;;8.14;91.36
60974;BME280;46846;51.528;5.076;2023-11-19T06:30:30;100329.78;;;8.16;91.48
60974;BME280;46846;51.528;5.076;2023-11-19T06:32:57;100332.31;;;8.19;91.73
60974;BME280;46846;51.528;5.076;2023-11-19T06:35:22;100332.31;;;8.19;91.34
60974;BME280;46846;51.528;5.076;2023-11-19T06:37:48;100338.75;;;8.12;91.31
60974;BME280;46846;51.528;5.076;2023-11-19T06:40:13;100328.91;;;8.16;91.59
60974;BME280;46846;51.528;5.076;2023-11-19T06:42:40;100332.47;;;8.15;91.25
60974;BME280;46846;51.528;5.076;2023-11-19T06:45:06;100336.13;;;8.12;91.01
60974;BME280;46846;51.528;5.076;2023-11-19T06:47:31;100337.69;;;8.18;91.07
60974;BME280;46846;51.528;5.076;2023-11-19T06:49:57;100351.16;;;8.10;91.23
60974;BME280;46846;51.528;5.076;2023-11-19T06:52:22;100352.00;;;8.12;91.17
60974;BME280;46846;51.528;5.076;2023-11-19T06:54:47;100350.22;;;8.13;91.24
60974;BME280;46846;51.528;5.076;2023-11-19T06:57:13;100350.31;;;8.10;91.04
60974;BME280;46846;51.528;5.076;2023-11-19T06:59:38;100361.78;;;8.10;91.23
60974;BME280;46846;51.528;5.076;2023-11-19T07:02:04;100369.78;;;8.09;91.27
60974;BME280;46846;51.528;5.076;2023-11-19T07:04:30;100370.75;;;8.06;91.27
60974;BME280;46846;51.528;5.076;2023-11-19T07:06:55;100374.06;;;8.13;91.00
60974;BME280;46846;51.528;5.076;2023-11-19T07:09:20;100380.41;;;8.09;90.88
60974;BME280;46846;51.528;5.076;2023-11-19T07:11:46;100383.94;;;8.07;91.12
60974;BME280;46846;51.528;5.076;2023-11-19T07:14:11;100383.28;;;8.01;91.30
60974;BME280;46846;51.528;5.076;2023-11-19T07:16:37;100386.72;;;8.03;91.18
60974;BME280;46846;51.528;5.076;2023-11-19T07:19:03;100384.81;;;8.08;91.13
60974;BME280;46846;51.528;5.076;2023-11-19T07:21:28;100389.53;;;7.98;91.03
60974;BME280;46846;51.528;5.076;2023-11-19T07:23:57;100382.50;;;7.97;90.99
60974;BME280;46846;51.528;5.076;2023-11-19T07:26:23;100388.72;;;7.96;91.36
60974;BME280;46846;51.528;5.076;2023-11-19T07:28:48;100388.56;;;8.01;91.31
60974;BME280;46846;51.528;5.076;2023-11-19T07:31:14;100381.50;;;8.01;90.86
60974;BME280;46846;51.528;5.076;2023-11-19T07:33:39;100387.63;;;8.03;91.00
60974;BME280;46846;51.528;5.076;2023-11-19T07:36:08;100386.88;;;7.98;90.96
60974;BME280;46846;51.528;5.076;2023-11-19T07:38:33;100390.28;;;8.02;90.77
60974;BME280;46846;51.528;5.076;2023-11-19T07:40:58;100398.34;;;7.99;90.96
60974;BME280;46846;51.528;5.076;2023-11-19T07:43:24;100395.78;;;7.96;90.98
60974;BME280;46846;51.528;5.076;2023-11-19T07:45:49;100388.72;;;7.96;91.12
60974;BME280;46846;51.528;5.076;2023-11-19T07:48:14;100387.94;;;7.92;91.18
60974;BME280;46846;51.528;5.076;2023-11-19T07:50:40;100376.44;;;7.93;91.24
60974;BME280;46846;51.528;5.076;2023-11-19T07:53:06;100379.97;;;7.94;91.11
60974;BME280;46846;51.528;5.076;2023-11-19T07:55:32;100395.78;;;7.96;91.00
60974;BME280;46846;51.528;5.076;2023-11-19T07:57:57;100395.00;;;7.92;91.09
60974;BME280;46846;51.528;5.076;2023-11-19T08:00:23;100396.75;;;7.93;91.21
60974;BME280;46846;51.528;5.076;2023-11-19T08:02:48;100400.41;;;7.89;91.11
60974;BME280;46846;51.528;5.076;2023-11-19T08:05:13;100393.47;;;7.85;91.18
60974;BME280;46846;51.528;5.076;2023-11-19T08:07:38;100392.50;;;7.87;91.34
60974;BME280;46846;51.528;5.076;2023-11-19T08:10:04;100395.19;;;7.86;91.40
60974;BME280;46846;51.528;5.076;2023-11-19T08:12:30;100396.94;;;7.87;91.28
60974;BME280;46846;51.528;5.076;2023-11-19T08:14:56;100395.97;;;7.89;91.18
60974;BME280;46846;51.528;5.076;2023-11-19T08:17:21;100395.97;;;7.89;91.17
60974;BME280;46846;51.528;5.076;2023-11-19T08:19:48;100399.59;;;7.87;91.42
60974;BME280;46846;51.528;5.076;2023-11-19T08:22:13;100390.91;;;7.82;91.26
60974;BME280;46846;51.528;5.076;2023-11-19T08:24:38;100394.41;;;7.82;91.49
60974;BME280;46846;51.528;5.076;2023-11-19T08:27:04;100402.31;;;7.84;91.29
60974;BME280;46846;51.528;5.076;2023-11-19T08:29:29;100393.47;;;7.85;91.34
60974;BME280;46846;51.528;5.076;2023-11-19T08:31:55;100393.59;;;7.80;91.43
60974;BME280;46846;51.528;5.076;2023-11-19T08:34:20;100390.03;;;7.81;91.35
60974;BME280;46846;51.528;5.076;2023-11-19T08:36:45;100390.00;;;7.83;91.25
60974;BME280;46846;51.528;5.076;2023-11-19T08:39:11;100389.88;;;7.86;91.14
60974;BME280;46846;51.528;5.076;2023-11-19T08:41:36;100389.88;;;7.86;90.94
60974;BME280;46846;51.528;5.076;2023-11-19T08:44:03;100402.50;;;7.77;91.30
60974;BME280;46846;51.528;5.076;2023-11-19T08:46:28;100400.63;;;7.81;91.18
60974;BME280;46846;51.528;5.076;2023-11-19T08:48:53;100404.16;;;7.82;91.28
60974;BME280;46846;51.528;5.076;2023-11-19T08:51:22;100399.72;;;7.82;91.03
60974;BME280;46846;51.528;5.076;2023-11-19T08:53:47;100398.63;;;7.89;91.01
60974;BME280;46846;51.528;5.076;2023-11-19T08:56:13;100406.66;;;7.86;90.87
60974;BME280;46846;51.528;5.076;2023-11-19T08:58:39;100412.06;;;7.83;91.21
60974;BME280;46846;51.528;5.076;2023-11-19T09:01:05;100411.22;;;7.81;91.03
60974;BME280;46846;51.528;5.076;2023-11-19T09:03:31;100408.53;;;7.83;91.04
60974;BME280;46846;51.528;5.076;2023-11-19T09:05:56;100412.06;;;7.83;91.10
60974;BME280;46846;51.528;5.076;2023-11-19T09:08:21;100412.84;;;7.87;90.95
60974;BME280;46846;51.528;5.076;2023-11-19T09:10:47;100407.44;;;7.90;90.96
60974;BME280;46846;51.528;5.076;2023-11-19T09:13:12;100409.16;;;7.91;91.02
60974;BME280;46846;51.528;5.076;2023-11-19T09:15:37;100404.69;;;7.93;90.74
60974;BME280;46846;51.528;5.076;2023-11-19T09:18:02;100400.44;;;7.87;90.61
60974;BME280;46846;51.528;5.076;2023-11-19T09:20:29;100395.25;;;7.84;91.06
60974;BME280;46846;51.528;5.076;2023-11-19T09:23:02;100388.31;;;7.80;91.36
60974;BME280;46846;51.528;5.076;2023-11-19T09:25:27;100397.06;;;7.82;91.11
60974;BME280;46846;51.528;5.076;2023-11-19T09:27:53;100388.38;;;7.78;91.39
60974;BME280;46846;51.528;5.076;2023-11-19T09:30:18;100388.22;;;7.83;91.33
60974;BME280;46846;51.528;5.076;2023-11-19T09:32:43;100387.38;;;7.81;91.07
60974;BME280;46846;51.528;5.076;2023-11-19T09:35:09;100402.31;;;7.84;91.21
60974;BME280;46846;51.528;5.076;2023-11-19T09:37:38;100394.38;;;7.84;91.22
60974;BME280;46846;51.528;5.076;2023-11-19T09:40:04;100397.50;;;7.97;91.06
60974;BME280;46846;51.528;5.076;2023-11-19T09:42:29;100401.25;;;7.89;91.05
60974;BME280;46846;51.528;5.076;2023-11-19T09:44:57;100398.50;;;7.94;91.04
60974;BME280;46846;51.528;5.076;2023-11-19T09:47:23;100396.63;;;7.98;90.75
60974;BME280;46846;51.528;5.076;2023-11-19T09:49:50;100394.81;;;7.98;90.94
60974;BME280;46846;51.528;5.076;2023-11-19T09:52:16;100394.06;;;7.94;90.87
60974;BME280;46846;51.528;5.076;2023-11-19T09:54:41;100393.25;;;7.92;91.43
60974;BME280;46846;51.528;5.076;2023-11-19T09:57:06;100393.19;;;7.94;91.14
60974;BME280;46846;51.528;5.076;2023-11-19T09:59:32;100392.13;;;8.00;91.02
60974;BME280;46846;51.528;5.076;2023-11-19T10:01:58;100400.09;;;8.00;90.87
60974;BME280;46846;51.528;5.076;2023-11-19T10:04:24;100394.69;;;8.03;90.76
60974;BME280;46846;51.528;5.076;2023-11-19T10:06:51;100411.41;;;8.05;90.77
60974;BME280;46846;51.528;5.076;2023-11-19T10:09:16;100404.25;;;8.09;90.72
60974;BME280;46846;51.528;5.076;2023-11-19T10:11:42;100402.44;;;8.09;90.73
60974;BME280;46846;51.528;5.076;2023-11-19T10:14:07;100397.25;;;8.06;90.86
60974;BME280;46846;51.528;5.076;2023-11-19T10:16:34;100390.06;;;8.10;90.78
60974;BME280;46846;51.528;5.076;2023-11-19T10:18:59;100387.97;;;8.19;90.50
60974;BME280;46846;51.528;5.076;2023-11-19T10:21:24;100395.13;;;8.17;90.24
60974;BME280;46846;51.528;5.076;2023-11-19T10:26:17;100381.22;;;8.11;90.36
60974;BME280;46846;51.528;5.076;2023-11-19T10:28:42;100378.56;;;8.11;90.85
60974;BME280;46846;51.528;5.076;2023-11-19T10:31:10;100386.41;;;8.14;90.63
60974;BME280;46846;51.528;5.076;2023-11-19T10:33:35;100385.22;;;8.24;90.60
60974;BME280;46846;51.528;5.076;2023-11-19T10:36:01;100392.66;;;8.40;91.11
60974;BME280;46846;51.528;5.076;2023-11-19T10:38:26;100403.91;;;8.46;90.33
60974;BME280;46846;51.528;5.076;2023-11-19T10:40:52;100390.00;;;8.40;90.39
60974;BME280;46846;51.528;5.076;2023-11-19T10:43:18;100396.16;;;8.40;90.68
60974;BME280;46846;51.528;5.076;2023-11-19T10:45:43;100384.88;;;8.62;90.42
60974;BME280;46846;51.528;5.076;2023-11-19T10:48:08;100390.63;;;8.75;89.78
60974;BME280;46846;51.528;5.076;2023-11-19T10:50:38;100386.16;;;8.77;89.50
60974;BME280;46846;51.528;5.076;2023-11-19T10:53:04;100384.78;;;8.65;89.63
60974;BME280;46846;51.528;5.076;2023-11-19T10:55:31;100393.63;;;8.64;89.77
60974;BME280;46846;51.528;5.076;2023-11-19T10:58:01;100388.75;;;8.52;90.06
60974;BME280;46846;51.528;5.076;2023-11-19T11:00:26;100395.13;;;8.46;90.17
60974;BME280;46846;51.528;5.076;2023-11-19T11:02:55;100379.09;;;8.49;90.24
60974;BME280;46846;51.528;5.076;2023-11-19T11:05:21;100381.91;;;8.44;90.27
60974;BME280;46846;51.528;5.076;2023-11-19T11:07:47;100396.94;;;8.44;90.40
60974;BME280;46846;51.528;5.076;2023-11-19T11:10:13;100393.56;;;8.39;90.32
60974;BME280;46846;51.528;5.076;2023-11-19T11:12:40;100402.16;;;8.47;90.41
60974;BME280;46846;51.528;5.076;2023-11-19T11:15:06;100389.75;;;8.47;90.05
60974;BME280;46846;51.528;5.076;2023-11-19T11:17:32;100384.50;;;8.46;90.16
60974;BME280;46846;51.528;5.076;2023-11-19T11:19:58;100385.50;;;8.42;90.43
60974;BME280;46846;51.528;5.076;2023-11-19T11:22:23;100383.06;;;8.35;90.42
60974;BME280;46846;51.528;5.076;2023-11-19T11:25:02;100385.66;;;8.37;90.73
60974;BME280;46846;51.528;5.076;2023-11-19T11:37:40;100374.78;;;8.45;90.73
60974;BME280;46846;51.528;5.076;2023-11-19T11:40:13;100362.47;;;8.44;91.02
60974;BME280;46846;51.528;5.076;2023-11-19T11:42:40;100359.72;;;8.47;90.73
60974;BME280;46846;51.528;5.076;2023-11-19T11:45:10;100346.72;;;8.39;91.25
60974;BME280;46846;51.528;5.076;2023-11-19T11:50:17;100353.81;;;8.39;91.38
60974;BME280;46846;51.528;5.076;2023-11-19T11:56:06;100346.66;;;8.41;91.55
60974;BME280;46846;51.528;5.076;2023-11-19T11:58:12;100334.25;;;8.41;91.38
60974;BME280;46846;51.528;5.076;2023-11-19T12:00:38;100344.81;;;8.43;91.51
60974;BME280;46846;51.528;5.076;2023-11-19T12:03:04;100344.38;;;8.57;91.54
60974;BME280;46846;51.528;5.076;2023-11-19T12:05:30;100337.25;;;8.59;90.97
60974;BME280;46846;51.528;5.076;2023-11-19T12:07:56;100325.81;;;8.57;91.16
60974;BME280;46846;51.528;5.076;2023-11-19T12:10:24;100330.28;;;8.56;91.36
60974;BME280;46846;51.528;5.076;2023-11-19T12:12:52;100320.59;;;8.55;90.97
60974;BME280;46846;51.528;5.076;2023-11-19T12:15:17;100321.22;;;8.62;90.97
60974;BME280;46846;51.528;5.076;2023-11-19T12:17:50;100319.66;;;8.56;90.97
60974;BME280;46846;51.528;5.076;2023-11-19T12:20:16;100307.44;;;8.51;91.31
60974;BME280;46846;51.528;5.076;2023-11-19T12:22:42;100321.50;;;8.54;91.20
60974;BME280;46846;51.528;5.076;2023-11-19T12:25:08;100334.66;;;8.57;91.39
60974;BME280;46846;51.528;5.076;2023-11-19T12:27:39;100324.00;;;8.59;91.04
60974;BME280;46846;51.528;5.076;2023-11-19T12:30:04;100337.34;;;8.56;91.23
60974;BME280;46846;51.528;5.076;2023-11-19T12:32:40;100336.28;;;8.61;91.33
60974;BME280;46846;51.528;5.076;2023-11-19T12:35:05;100337.19;;;8.60;91.17
60974;BME280;46846;51.528;5.076;2023-11-19T12:37:31;100331.94;;;8.59;91.34
60974;BME280;46846;51.528;5.076;2023-11-19T12:39:59;100331.94;;;8.59;91.41
60974;BME280;46846;51.528;5.076;2023-11-19T12:42:36;100324.00;;;8.59;91.28
60974;BME280;46846;51.528;5.076;2023-11-19T12:45:05;100331.06;;;8.58;91.44
60974;BME280;46846;51.528;5.076;2023-11-19T12:47:30;100335.41;;;8.61;91.18
60974;BME280;46846;51.528;5.076;2023-11-19T12:49:59;100331.78;;;8.64;91.33
60974;BME280;46846;51.528;5.076;2023-11-19T12:52:24;100336.06;;;8.68;91.37
60974;BME280;46846;51.528;5.076;2023-11-19T12:54:49;100325.56;;;8.65;91.43
60974;BME280;46846;51.528;5.076;2023-11-19T13:00:23;100327.41;;;8.63;91.64
60974;BME280;46846;51.528;5.076;2023-11-19T13:02:49;100346.00;;;8.61;91.65
60974;BME280;46846;51.528;5.076;2023-11-19T13:07:51;100334.53;;;8.60;91.54
60974;BME280;46846;51.528;5.076;2023-11-19T13:10:16;100328.34;;;8.61;91.81
60974;BME280;46846;51.528;5.076;2023-11-19T13:12:42;100323.72;;;8.67;91.83
60974;BME280;46846;51.528;5.076;2023-11-19T13:15:22;100321.13;;;8.65;91.86
60974;BME280;46846;51.528;5.076;2023-11-19T13:17:47;100330.75;;;8.68;91.43